createdAt,value
2023-05-20T00:00:14.559Z,101435.75
2023-05-20T00:03:08.409Z,101431.14
2023-05-20T00:05:42.991Z,101423.77
2023-05-20T00:08:17.051Z,101427.48
2023-05-20T00:10:50.767Z,101426.73
2023-05-20T00:13:25.238Z,101426.13
2023-05-20T00:15:58.952Z,101422.91
2023-05-20T00:18:32.951Z,101421.16
2023-05-20T00:21:06.800Z,101418.70
2023-05-20T00:23:41.018Z,101416.79
2023-05-20T00:26:14.348Z,101414.11
2023-05-20T00:28:48.418Z,101414.16
2023-05-20T00:31:22.478Z,101415.27
2023-05-20T00:33:56.361Z,101415.98
2023-05-20T00:36:30.263Z,101414.10
2023-05-20T00:39:04.052Z,101411.45
2023-05-20T00:41:37.942Z,101407.80
2023-05-20T00:44:11.877Z,101404.86
2023-05-20T00:46:46.103Z,101408.59
2023-05-20T00:49:19.782Z,101408.65
2023-05-20T00:51:53.614Z,101410.43
2023-05-20T00:54:27.237Z,101411.66
2023-05-20T00:57:03.780Z,101407.44
2023-05-20T00:59:38.359Z,101409.79
2023-05-20T01:02:12.311Z,101411.57
2023-05-20T01:04:47.755Z,101412.70
2023-05-20T01:07:21.959Z,101410.98
2023-05-20T01:09:56.615Z,101410.48
2023-05-20T01:12:33.977Z,101411.39
2023-05-20T01:15:11.067Z,101413.50
2023-05-20T01:17:47.496Z,101413.75
2023-05-20T01:20:22.236Z,101409.73
2023-05-20T01:22:57.839Z,101409.29
2023-05-20T01:25:31.717Z,101411.49
2023-05-20T01:28:06.426Z,101413.98
2023-05-20T01:30:50.478Z,101411.60
2023-05-20T01:33:27.228Z,101414.30
2023-05-20T01:36:01.598Z,101414.27
2023-05-20T01:38:35.788Z,101414.55
2023-05-20T01:41:10.944Z,101414.48
2023-05-20T01:43:45.012Z,101412.68
2023-05-20T01:46:18.709Z,101410.34
2023-05-20T01:48:52.779Z,101409.60
2023-05-20T01:51:26.425Z,101404.36
2023-05-20T01:54:00.596Z,101400.73
2023-05-20T01:56:34.465Z,101398.52
2023-05-20T01:59:08.160Z,101397.84
2023-05-20T02:01:41.677Z,101394.84
2023-05-20T02:04:15.333Z,101392.67
2023-05-20T02:06:48.741Z,101391.66
2023-05-20T02:09:23.399Z,101394.02
2023-05-20T02:11:59.743Z,101392.30
2023-05-20T02:14:33.602Z,101388.63
2023-05-20T02:17:07.646Z,101390.33
2023-05-20T02:19:41.702Z,101395.86
2023-05-20T02:22:15.333Z,101399.34
2023-05-20T02:24:50.669Z,101397.98
2023-05-20T02:27:24.999Z,101399.13
2023-05-20T02:29:59.574Z,101401.61
2023-05-20T02:32:34.165Z,101401.36
2023-05-20T02:35:08.616Z,101399.59
2023-05-20T02:37:42.448Z,101402.21
2023-05-20T02:40:16.834Z,101406.36
2023-05-20T02:42:50.394Z,101408.88
2023-05-20T02:45:24.227Z,101408.33
2023-05-20T02:47:58.744Z,101409.36
2023-05-20T02:50:32.486Z,101408.63
2023-05-20T02:53:05.901Z,101411.85
2023-05-20T02:55:40.138Z,101404.95
2023-05-20T02:58:14.054Z,101403.79
2023-05-20T03:00:48.113Z,101404.07
2023-05-20T03:03:23.172Z,101405.42
2023-05-20T03:05:57.092Z,101401.70
2023-05-20T03:08:31.623Z,101403.52
2023-05-20T03:11:06.735Z,101405.07
2023-05-20T03:13:40.616Z,101404.52
2023-05-20T03:16:14.741Z,101406.09
2023-05-20T03:18:48.238Z,101404.99
2023-05-20T03:21:29.816Z,101410.25
2023-05-20T03:24:03.422Z,101412.96
2023-05-20T03:26:38.935Z,101415.58
2023-05-20T03:29:13.254Z,101415.64
2023-05-20T03:31:47.168Z,101413.19
2023-05-20T03:34:20.951Z,101411.75
2023-05-20T03:36:54.885Z,101411.55
2023-05-20T03:39:28.452Z,101410.95
2023-05-20T03:42:02.455Z,101408.23
2023-05-20T03:44:36.481Z,101407.98
2023-05-20T03:47:10.984Z,101410.83
2023-05-20T03:49:45.261Z,101406.27
2023-05-20T03:52:19.233Z,101408.41
2023-05-20T03:54:53.021Z,101405.89
2023-05-20T03:57:27.360Z,101406.59
2023-05-20T04:00:02.656Z,101407.31
2023-05-20T04:02:37.715Z,101406.90
2023-05-20T04:05:12.877Z,101407.52
2023-05-20T04:07:47.366Z,101406.61
2023-05-20T04:10:22.582Z,101406.75
2023-05-20T04:12:57.491Z,101408.04
2023-05-20T04:15:31.574Z,101413.02
2023-05-20T04:18:06.101Z,101409.30
2023-05-20T04:20:41.952Z,101410.20
2023-05-20T04:23:16.626Z,101412.88
2023-05-20T04:25:50.496Z,101415.10
2023-05-20T04:28:28.881Z,101418.11
2023-05-20T04:31:06.015Z,101420.96
2023-05-20T04:33:41.802Z,101421.15
2023-05-20T04:36:16.792Z,101419.59
2023-05-20T04:38:51.151Z,101418.98
2023-05-20T04:41:25.671Z,101417.20
2023-05-20T04:44:01.144Z,101417.45
2023-05-20T04:46:35.567Z,101415.41
2023-05-20T04:49:09.061Z,101412.86
2023-05-20T04:51:44.248Z,101408.99
2023-05-20T04:54:20.679Z,101407.68
2023-05-20T04:56:55.059Z,101403.73
2023-05-20T04:59:29.325Z,101403.34
2023-05-20T05:02:03.128Z,101403.22
2023-05-20T05:04:36.919Z,101406.92
2023-05-20T05:07:11.424Z,101410.77
2023-05-20T05:09:44.967Z,101411.73
2023-05-20T05:12:18.684Z,101411.55
2023-05-20T05:14:52.978Z,101412.38
2023-05-20T05:17:26.727Z,101415.29
2023-05-20T05:20:00.500Z,101412.56
2023-05-20T05:22:37.772Z,101411.64
2023-05-20T05:25:13.388Z,101409.64
2023-05-20T05:27:49.814Z,101414.05
2023-05-20T05:30:23.761Z,101410.19
2023-05-20T05:32:58.032Z,101407.65
2023-05-20T05:35:32.386Z,101407.50
2023-05-20T05:38:06.158Z,101410.77
2023-05-20T05:40:40.345Z,101413.73
2023-05-20T05:43:14.392Z,101412.27
2023-05-20T05:45:48.882Z,101415.51
2023-05-20T05:48:23.042Z,101417.86
2023-05-20T05:50:57.050Z,101421.52
2023-05-20T05:53:31.115Z,101422.58
2023-05-20T05:56:04.886Z,101419.23
2023-05-20T05:58:40.091Z,101417.25
2023-05-20T06:01:14.304Z,101416.15
2023-05-20T06:03:48.494Z,101414.66
2023-05-20T06:06:22.324Z,101412.84
2023-05-20T06:08:56.152Z,101413.67
2023-05-20T06:11:30.707Z,101411.00
2023-05-20T06:14:05.280Z,101414.63
2023-05-20T06:16:39.687Z,101415.48
2023-05-20T06:19:14.422Z,101414.41
2023-05-20T06:21:48.150Z,101413.39
2023-05-20T06:24:24.268Z,101418.42
2023-05-20T06:26:58.243Z,101416.16
2023-05-20T06:29:32.257Z,101413.29
2023-05-20T06:32:06.083Z,101410.52
2023-05-20T06:34:40.432Z,101408.06
2023-05-20T06:37:14.802Z,101406.27
2023-05-20T06:39:54.390Z,101404.03
2023-05-20T06:42:28.472Z,101400.98
2023-05-20T06:45:14.352Z,101399.58
2023-05-20T06:48:11.602Z,101393.77
2023-05-20T06:50:48.959Z,101394.46
2023-05-20T06:53:22.966Z,101392.39
2023-05-20T06:55:57.350Z,101389.76
2023-05-20T06:58:31.566Z,101387.55
2023-05-20T07:01:05.671Z,101386.19
2023-05-20T07:03:39.659Z,101384.98
2023-05-20T07:06:13.503Z,101385.77
2023-05-20T07:08:47.963Z,101382.36
2023-05-20T07:11:22.069Z,101383.64
2023-05-20T07:13:55.629Z,101388.39
2023-05-20T07:16:35.400Z,101383.28
2023-05-20T07:19:10.274Z,101388.50
2023-05-20T07:21:44.485Z,101389.54
2023-05-20T07:24:41.149Z,101393.05
2023-05-20T07:27:14.983Z,101389.08
2023-05-20T07:29:48.841Z,101393.13
2023-05-20T07:32:23.444Z,101391.61
2023-05-20T07:34:57.518Z,101391.15
2023-05-20T07:37:31.607Z,101386.30
2023-05-20T07:40:11.739Z,101386.73
2023-05-20T07:42:45.679Z,101384.58
2023-05-20T07:45:20.079Z,101385.86
2023-05-20T07:47:53.952Z,101381.67
2023-05-20T07:50:28.235Z,101381.12
2023-05-20T07:53:02.472Z,101379.28
2023-05-20T07:55:38.764Z,101374.66
2023-05-20T07:58:13.685Z,101374.49
2023-05-20T08:00:48.178Z,101372.13
2023-05-20T08:03:23.052Z,101367.77
2023-05-20T08:06:05.438Z,101370.02
2023-05-20T08:08:40.976Z,101369.70
2023-05-20T08:11:19.403Z,101369.38
2023-05-20T08:13:53.744Z,101374.95
2023-05-20T08:16:30.029Z,101373.81
2023-05-20T08:19:03.763Z,101372.29
2023-05-20T08:21:37.946Z,101371.85
2023-05-20T08:24:11.720Z,101368.77
2023-05-20T08:26:46.458Z,101368.50
2023-05-20T08:29:20.842Z,101370.47
2023-05-20T08:31:54.816Z,101367.46
2023-05-20T08:34:29.080Z,101365.80
2023-05-20T08:37:03.545Z,101363.24
2023-05-20T08:39:37.314Z,101364.60
2023-05-20T08:42:14.201Z,101364.63
2023-05-20T08:44:48.892Z,101365.90
2023-05-20T08:47:23.452Z,101357.84
2023-05-20T08:49:57.065Z,101354.53
2023-05-20T08:52:33.508Z,101355.97
2023-05-20T08:55:11.851Z,101352.48
2023-05-20T08:57:46.225Z,101349.96
2023-05-20T09:00:22.133Z,101350.42
2023-05-20T09:02:56.468Z,101349.06
2023-05-20T09:05:33.297Z,101347.59
2023-05-20T09:08:11.918Z,101339.55
2023-05-20T09:10:46.325Z,101342.18
2023-05-20T09:13:23.999Z,101347.48
2023-05-20T09:15:57.944Z,101344.55
2023-05-20T09:18:32.318Z,101346.59
2023-05-20T09:21:08.624Z,101343.02
2023-05-20T09:23:42.239Z,101339.23
2023-05-20T09:26:16.943Z,101334.75
2023-05-20T09:28:50.504Z,101336.21
2023-05-20T09:31:27.606Z,101340.67
2023-05-20T09:34:01.762Z,101338.64
2023-05-20T09:36:37.692Z,101334.06
2023-05-20T09:39:15.515Z,101333.44
2023-05-20T09:41:58.309Z,101331.27
2023-05-20T09:44:32.907Z,101325.76
2023-05-20T09:47:08.811Z,101324.18
2023-05-20T09:49:43.661Z,101321.39
2023-05-20T09:52:20.724Z,101326.50
2023-05-20T09:54:58.165Z,101324.86
2023-05-20T09:57:35.381Z,101326.81
2023-05-20T10:00:14.156Z,101323.06
2023-05-20T10:02:50.319Z,101325.21
2023-05-20T10:05:26.330Z,101321.95
2023-05-20T10:08:24.749Z,101321.27
2023-05-20T10:11:07.428Z,101318.48
2023-05-20T10:13:57.313Z,101318.95
2023-05-20T10:16:38.289Z,101312.65
2023-05-20T10:19:30.238Z,101315.38
2023-05-20T10:22:05.750Z,101319.15
2023-05-20T10:24:41.487Z,101323.65
2023-05-20T10:27:17.432Z,101317.80
2023-05-20T10:29:55.942Z,101311.63
2023-05-20T10:32:31.927Z,101309.64
2023-05-20T10:35:07.368Z,101308.52
2023-05-20T10:37:48.607Z,101307.02
2023-05-20T10:40:24.362Z,101301.09
2023-05-20T10:43:01.960Z,101294.62
2023-05-20T10:45:37.777Z,101292.11
2023-05-20T10:48:21.777Z,101291.61
2023-05-20T10:50:58.829Z,101288.05
2023-05-20T10:53:42.118Z,101281.54
2023-05-20T10:56:23.347Z,101273.52
2023-05-20T10:58:58.109Z,101275.97
2023-05-20T11:01:32.593Z,101277.91
2023-05-20T11:04:07.033Z,101273.58
2023-05-20T11:06:40.987Z,101269.84
2023-05-20T11:09:14.988Z,101270.02
2023-05-20T11:11:48.553Z,101258.95
2023-05-20T11:14:23.075Z,101252.80
2023-05-20T11:17:00.515Z,101251.45
2023-05-20T11:19:35.077Z,101249.84
2023-05-20T11:22:10.850Z,101244.08
2023-05-20T11:24:44.534Z,101245.36
2023-05-20T11:27:18.184Z,101241.98
2023-05-20T11:29:53.394Z,101241.45
2023-05-20T11:32:27.296Z,101234.55
2023-05-20T11:35:02.098Z,101235.33
2023-05-20T11:37:37.780Z,101235.20
2023-05-20T11:40:13.698Z,101238.06
2023-05-20T11:42:49.544Z,101246.09
2023-05-20T11:45:23.389Z,101251.98
2023-05-20T11:48:08.379Z,101241.09
2023-05-20T11:50:44.203Z,101241.14
2023-05-20T11:53:20.854Z,101249.52
2023-05-20T11:55:57.271Z,101250.39
2023-05-20T11:58:32.704Z,101252.63
2023-05-20T12:01:21.048Z,101244.09
2023-05-20T12:03:56.620Z,101244.23
2023-05-20T12:06:30.630Z,101238.96
2023-05-20T12:09:07.539Z,101236.05
2023-05-20T12:11:42.481Z,101229.34
2023-05-20T12:14:16.596Z,101222.48
2023-05-20T12:16:50.047Z,101223.30
2023-05-20T12:19:24.656Z,101222.94
2023-05-20T12:21:58.592Z,101220.73
2023-05-20T12:24:32.334Z,101229.13
2023-05-20T12:27:06.819Z,101230.77
2023-05-20T12:29:40.461Z,101225.73
2023-05-20T12:32:13.896Z,101221.72
2023-05-20T12:34:47.745Z,101224.67
2023-05-20T12:37:21.467Z,101223.42
2023-05-20T12:39:55.075Z,101227.12
2023-05-20T12:42:28.456Z,101232.94
2023-05-20T12:45:02.635Z,101221.26
2023-05-20T12:47:37.308Z,101220.13
2023-05-20T12:50:12.396Z,101210.75
2023-05-20T12:52:46.410Z,101206.95
2023-05-20T12:55:30.483Z,101203.39
2023-05-20T12:58:04.426Z,101204.38
2023-05-20T13:00:38.726Z,101197.23
2023-05-20T13:03:12.765Z,101192.62
2023-05-20T13:05:46.651Z,101195.91
2023-05-20T13:08:20.560Z,101191.73
2023-05-20T13:10:54.233Z,101185.11
2023-05-20T13:13:27.918Z,101184.38
2023-05-20T13:16:02.113Z,101189.26
2023-05-20T13:18:36.001Z,101186.31
2023-05-20T13:21:10.004Z,101186.67
2023-05-20T13:23:45.611Z,101183.02
2023-05-20T13:26:19.859Z,101185.17
2023-05-20T13:28:53.902Z,101188.14
2023-05-20T13:31:27.769Z,101181.40
2023-05-20T13:34:02.327Z,101174.58
2023-05-20T13:36:36.661Z,101174.54
2023-05-20T13:39:10.575Z,101176.66
2023-05-20T13:41:44.541Z,101175.17
2023-05-20T13:44:18.578Z,101172.06
2023-05-20T13:46:52.735Z,101170.41
2023-05-20T13:49:26.876Z,101171.80
2023-05-20T13:52:01.513Z,101170.76
2023-05-20T13:54:35.808Z,101171.10
2023-05-20T13:57:10.494Z,101170.76
2023-05-20T13:59:44.357Z,101171.06
2023-05-20T14:02:17.994Z,101167.53
2023-05-20T14:04:51.633Z,101168.48
2023-05-20T14:07:24.979Z,101160.48
2023-05-20T14:09:59.165Z,101157.30
2023-05-20T14:12:33.089Z,101156.59
2023-05-20T14:15:07.896Z,101152.86
2023-05-20T14:17:42.036Z,101148.25
2023-05-20T14:20:16.462Z,101146.59
2023-05-20T14:22:50.047Z,101148.55
2023-05-20T14:25:24.132Z,101148.65
2023-05-20T14:27:58.441Z,101146.80
2023-05-20T14:30:32.846Z,101149.61
2023-05-20T14:33:07.066Z,101145.27
2023-05-20T14:35:40.884Z,101147.41
2023-05-20T14:38:14.745Z,101145.36
2023-05-20T14:40:48.266Z,101141.91
2023-05-20T14:43:21.764Z,101144.01
2023-05-20T14:45:55.571Z,101143.95
2023-05-20T14:48:29.556Z,101141.98
2023-05-20T14:51:03.487Z,101144.09
2023-05-20T14:53:37.873Z,101139.02
2023-05-20T14:56:12.346Z,101134.81
2023-05-20T14:58:46.108Z,101135.58
2023-05-20T15:01:20.465Z,101137.91
2023-05-20T15:03:54.351Z,101139.14
2023-05-20T15:06:28.104Z,101136.27
2023-05-20T15:09:01.788Z,101127.67
2023-05-20T15:11:35.654Z,101130.20
2023-05-20T15:14:09.230Z,101128.52
2023-05-20T15:16:44.834Z,101127.29
2023-05-20T15:19:18.736Z,101128.58
2023-05-20T15:21:53.179Z,101124.89
2023-05-20T15:24:27.197Z,101120.23
2023-05-20T15:27:00.660Z,101117.71
2023-05-20T15:29:34.533Z,101123.41
2023-05-20T15:32:09.386Z,101121.75
2023-05-20T15:34:43.332Z,101118.52
2023-05-20T15:37:16.736Z,101115.77
2023-05-20T15:39:51.513Z,101114.42
2023-05-20T15:42:25.275Z,101110.21
2023-05-20T15:44:58.942Z,101110.32
2023-05-20T15:47:32.735Z,101114.15
2023-05-20T15:50:08.846Z,101109.71
2023-05-20T15:52:43.130Z,101109.91
2023-05-20T15:55:17.106Z,101109.42
2023-05-20T15:57:51.189Z,101108.23
2023-05-20T16:00:25.938Z,101106.17
2023-05-20T16:03:00.049Z,101107.45
2023-05-20T16:05:33.988Z,101102.73
2023-05-20T16:08:08.326Z,101101.33
2023-05-20T16:10:42.046Z,101105.39
2023-05-20T16:13:15.604Z,101101.06
2023-05-20T16:15:51.486Z,101107.73
2023-05-20T16:18:25.282Z,101105.20
2023-05-20T16:20:59.422Z,101104.64
2023-05-20T16:23:33.186Z,101099.52
2023-05-20T16:26:07.057Z,101099.29
2023-05-20T16:28:40.749Z,101098.27
2023-05-20T16:31:14.784Z,101098.42
2023-05-20T16:33:48.904Z,101101.42
2023-05-20T16:36:23.515Z,101100.36
2023-05-20T16:38:57.303Z,101104.83
2023-05-20T16:41:31.274Z,101107.95
2023-05-20T16:44:05.137Z,101107.60
2023-05-20T16:46:38.742Z,101106.73
2023-05-20T16:49:12.482Z,101107.02
2023-05-20T16:51:47.587Z,101109.06
2023-05-20T16:54:21.708Z,101108.39
2023-05-20T16:56:55.401Z,101109.20
2023-05-20T16:59:30.651Z,101113.54
2023-05-20T17:02:04.261Z,101117.34
2023-05-20T17:04:38.486Z,101120.01
2023-05-20T17:07:13.774Z,101121.98
2023-05-20T17:09:47.514Z,101121.61
2023-05-20T17:12:21.438Z,101124.10
2023-05-20T17:14:55.173Z,101127.63
2023-05-20T17:17:29.171Z,101130.55
2023-05-20T17:20:02.720Z,101131.38
2023-05-20T17:22:36.683Z,101132.39
2023-05-20T17:25:12.126Z,101132.39
2023-05-20T17:27:45.701Z,101132.92
2023-05-20T17:30:19.838Z,101132.48
2023-05-20T17:32:54.174Z,101136.84
2023-05-20T17:35:28.580Z,101136.51
2023-05-20T17:38:02.382Z,101141.92
2023-05-20T17:40:36.918Z,101141.91
2023-05-20T17:43:10.909Z,101140.89
2023-05-20T17:45:44.462Z,101142.64
2023-05-20T17:48:18.299Z,101147.33
2023-05-20T17:50:52.162Z,101146.53
2023-05-20T17:53:26.057Z,101144.38
2023-05-20T17:55:59.992Z,101148.26
2023-05-20T17:58:34.111Z,101147.13
2023-05-20T18:01:09.725Z,101143.64
2023-05-20T18:03:43.840Z,101142.86
2023-05-20T18:06:18.310Z,101140.83
2023-05-20T18:08:52.098Z,101140.56
2023-05-20T18:11:27.347Z,101142.42
2023-05-20T18:14:01.625Z,101143.36
2023-05-20T18:16:35.507Z,101147.48
2023-05-20T18:19:09.328Z,101147.88
2023-05-20T18:21:43.903Z,101150.99
2023-05-20T18:24:19.566Z,101149.01
2023-05-20T18:26:53.971Z,101149.23
2023-05-20T18:29:27.467Z,101152.39
2023-05-20T18:32:01.650Z,101155.98
2023-05-20T18:34:35.832Z,101158.90
2023-05-20T18:37:10.211Z,101157.42
2023-05-20T18:39:44.044Z,101156.33
2023-05-20T18:42:18.144Z,101158.87
2023-05-20T18:44:51.777Z,101160.92
2023-05-20T18:47:26.111Z,101162.33
2023-05-20T18:50:00.074Z,101164.85
2023-05-20T18:52:34.033Z,101159.77
2023-05-20T18:55:09.181Z,101159.00
2023-05-20T18:57:42.965Z,101157.73
2023-05-20T19:00:18.791Z,101155.94
2023-05-20T19:02:52.676Z,101155.48
2023-05-20T19:05:26.932Z,101156.15
2023-05-20T19:08:02.954Z,101153.67
2023-05-20T19:10:36.786Z,101150.58
2023-05-20T19:13:10.243Z,101151.61
2023-05-20T19:15:44.171Z,101152.79
2023-05-20T19:18:17.797Z,101152.03
2023-05-20T19:20:52.761Z,101154.62
2023-05-20T19:23:26.987Z,101154.20
2023-05-20T19:26:00.998Z,101158.31
2023-05-20T19:28:34.935Z,101157.48
2023-05-20T19:31:09.186Z,101156.13
2023-05-20T19:33:43.081Z,101156.45
2023-05-20T19:36:16.882Z,101155.02
2023-05-20T19:38:50.543Z,101155.02
2023-05-20T19:41:24.030Z,101154.52
2023-05-20T19:43:57.816Z,101152.55
2023-05-20T19:46:31.722Z,101154.34
2023-05-20T19:49:05.473Z,101155.08
2023-05-20T19:51:40.063Z,101154.30
2023-05-20T19:54:13.610Z,101155.85
2023-05-20T19:56:47.237Z,101154.85
2023-05-20T19:59:20.879Z,101157.73
2023-05-20T20:01:54.656Z,101159.40
2023-05-20T20:04:28.371Z,101160.09
2023-05-20T20:07:03.057Z,101160.81
2023-05-20T20:09:49.426Z,101158.45
2023-05-20T20:12:23.928Z,101160.63
2023-05-20T20:14:58.071Z,101159.80
2023-05-20T20:17:34.073Z,101157.97
2023-05-20T20:20:10.606Z,101153.38
2023-05-20T20:22:44.703Z,101155.95
2023-05-20T20:25:19.024Z,101154.05
2023-05-20T20:27:53.058Z,101154.42
2023-05-20T20:30:27.183Z,101155.19
2023-05-20T20:33:01.726Z,101162.19
2023-05-20T20:35:35.622Z,101161.50
2023-05-20T20:38:10.379Z,101162.73
2023-05-20T20:40:45.197Z,101167.30
2023-05-20T20:43:21.178Z,101168.11
2023-05-20T20:45:56.838Z,101165.00
2023-05-20T20:48:31.038Z,101164.52
2023-05-20T20:51:05.060Z,101163.66
2023-05-20T20:53:38.645Z,101162.30
2023-05-20T20:56:12.736Z,101161.14
2023-05-20T20:58:46.615Z,101156.86
2023-05-20T21:01:20.100Z,101152.83
2023-05-20T21:03:54.882Z,101151.95
2023-05-20T21:06:28.945Z,101149.73
2023-05-20T21:09:05.211Z,101150.76
2023-05-20T21:11:42.473Z,101145.50
2023-05-20T21:14:16.483Z,101146.64
2023-05-20T21:16:50.159Z,101143.57
2023-05-20T21:19:24.353Z,101146.45
2023-05-20T21:22:00.043Z,101142.17
2023-05-20T21:24:34.138Z,101144.80
2023-05-20T21:27:08.382Z,101146.48
2023-05-20T21:29:41.864Z,101143.98
2023-05-20T21:32:15.604Z,101140.85
2023-05-20T21:34:49.193Z,101140.77
2023-05-20T21:37:22.987Z,101145.02
2023-05-20T21:39:56.693Z,101146.30
2023-05-20T21:42:30.566Z,101145.61
2023-05-20T21:45:04.311Z,101147.44
2023-05-20T21:47:38.080Z,101145.80
2023-05-20T21:50:13.376Z,101150.34
2023-05-20T21:52:47.603Z,101152.67
2023-05-20T21:55:23.958Z,101154.05
2023-05-20T21:57:57.817Z,101152.65
2023-05-20T22:00:31.335Z,101152.77
2023-05-20T22:03:06.108Z,101153.73
2023-05-20T22:05:40.295Z,101155.78
2023-05-20T22:08:14.310Z,101157.98
2023-05-20T22:10:48.795Z,101158.10
2023-05-20T22:13:26.465Z,101159.30
2023-05-20T22:16:00.479Z,101157.17
2023-05-20T22:18:34.128Z,101153.83
2023-05-20T22:21:08.308Z,101153.52
2023-05-20T22:23:42.514Z,101152.19
2023-05-20T22:26:18.743Z,101153.41
2023-05-20T22:28:52.688Z,101151.55
2023-05-20T22:31:26.346Z,101150.94
2023-05-20T22:33:59.797Z,101153.04
2023-05-20T22:36:36.714Z,101152.40
2023-05-20T22:39:10.616Z,101148.98
2023-05-20T22:41:44.169Z,101149.01
2023-05-20T22:44:17.885Z,101150.41
2023-05-20T22:46:51.382Z,101151.95
2023-05-20T22:49:25.500Z,101152.80
2023-05-20T22:51:59.719Z,101152.15
2023-05-20T22:54:43.114Z,101149.77
2023-05-20T22:57:17.421Z,101149.57
2023-05-20T22:59:52.379Z,101149.63
2023-05-20T23:02:26.488Z,101146.10
2023-05-20T23:05:00.290Z,101145.05
2023-05-20T23:07:34.219Z,101147.10
2023-05-20T23:10:08.358Z,101147.05
2023-05-20T23:12:42.211Z,101142.75
2023-05-20T23:15:16.070Z,101143.59
2023-05-20T23:17:52.056Z,101143.55
2023-05-20T23:20:29.823Z,101142.66
2023-05-20T23:23:10.856Z,101142.27
2023-05-20T23:25:46.265Z,101145.91
2023-05-20T23:28:20.120Z,101146.69
2023-05-20T23:30:53.870Z,101145.05
2023-05-20T23:33:27.869Z,101141.40
2023-05-20T23:36:01.639Z,101142.10
2023-05-20T23:38:35.735Z,101141.11
2023-05-20T23:41:09.621Z,101143.42
2023-05-20T23:43:43.449Z,101141.28
2023-05-20T23:46:18.794Z,101143.92
2023-05-20T23:48:52.517Z,101143.52
2023-05-20T23:51:26.017Z,101140.30
2023-05-20T23:53:59.952Z,101138.30
2023-05-20T23:56:34.330Z,101138.26
2023-05-20T23:59:07.780Z,101136.65
